weather.gov     
National Weather Service

Terminal Aerodrome Forecast
NWS Homepage
This page is being discontinued on March 12, 2014.
The same data is available at this site. Please update your bookmarks.
Thank you, and we apologize for the inconvenience.
Please send an email to SR-SRH.Webmaster@noaa.gov with any concerns.


Current Version
Previous Version:    01  02  03  04  05  06  07  08  09  10  11  12  13  14  15  16  17  18  19  20  21  22  23  24  25  
[Printable]
029
FTUS44 KEPZ 180500
TAFDMN
TAF
KDMN 180520Z 1806/1906 07009KT P6SM SCT250
     FM181500 12008KT P6SM BKN250
     FM181900 21012G22KT P6SM BKN120 OVC200
     FM190000 19011KT P6SM VCTS SCT070CB BKN100 OVC200
      TEMPO 1902/1906 VRB27G40KT 6SM -TSRA BKN060CB OVC100=


U.S. Dept. of Commerce
NOAA National Weather Service
1325 East West Highway
Silver Spring, MD 20910
E-mail: w-nws.webmaster@noaa.gov
Page last modified: May 16, 2007
NATIONAL WEATHER SERVICE: for Safety, for Work, for Fun - FOR LIFE